createdAt,value
2022-08-23T00:02:26.703Z,97794.41
2022-08-23T00:05:08.167Z,97803.31
2022-08-23T00:07:39.674Z,97807.41
2022-08-23T00:10:11.678Z,97808.75
2022-08-23T00:12:40.675Z,97803.38
2022-08-23T00:15:10.896Z,97812.22
2022-08-23T00:17:42.226Z,97814.09
2022-08-23T00:20:14.004Z,97825.16
2022-08-23T00:22:42.146Z,97818.44
2022-08-23T00:25:13.783Z,97818.34
2022-08-23T00:27:42.174Z,97824.03
2022-08-23T00:30:12.616Z,97823.50
2022-08-23T00:32:41.549Z,97824.09
2022-08-23T00:35:11.554Z,97817.78
2022-08-23T00:37:40.074Z,97817.66
2022-08-23T00:40:12.263Z,97811.81
2022-08-23T00:43:02.642Z,97817.56
2022-08-23T00:45:52.239Z,97813.97
2022-08-23T00:48:20.670Z,97815.78
2022-08-23T00:50:52.737Z,97821.97
2022-08-23T00:53:24.086Z,97815.56
2022-08-23T00:55:57.325Z,97817.56
2022-08-23T00:58:26.644Z,97821.91
2022-08-23T01:00:56.990Z,97822.75
2022-08-23T01:03:27.291Z,97814.75
2022-08-23T01:05:59.807Z,97825.19
2022-08-23T01:08:28.559Z,97826.34
2022-08-23T01:11:01.199Z,97827.63
2022-08-23T01:13:36.065Z,97828.84
2022-08-23T01:16:08.913Z,97827.22
2022-08-23T01:18:38.178Z,97835.97
2022-08-23T01:21:13.656Z,97840.06
2022-08-23T01:23:45.359Z,97842.06
2022-08-23T01:26:14.476Z,97839.97
2022-08-23T01:28:50.320Z,97833.03
2022-08-23T01:31:19.325Z,97840.22
2022-08-23T01:33:50.346Z,97835.59
2022-08-23T01:36:18.648Z,97845.50
2022-08-23T01:38:48.412Z,97841.97
2022-08-23T01:41:16.556Z,97833.78
2022-08-23T01:43:45.115Z,97841.03
2022-08-23T01:46:18.048Z,97840.84
2022-08-23T01:48:47.100Z,97839.50
2022-08-23T01:51:16.864Z,97841.09
2022-08-23T01:53:46.689Z,97833.00
2022-08-23T01:56:27.605Z,97833.97
2022-08-23T01:59:08.566Z,97842.63
2022-08-23T02:01:37.119Z,97832.50
2022-08-23T02:04:05.739Z,97825.28
2022-08-23T02:06:34.747Z,97828.41
2022-08-23T02:09:03.892Z,97826.31
2022-08-23T02:11:35.554Z,97833.78
2022-08-23T02:14:06.648Z,97828.50
2022-08-23T02:16:37.446Z,97832.50
2022-08-23T02:19:08.696Z,97828.09
2022-08-23T02:21:38.049Z,97827.63
2022-08-23T02:24:08.432Z,97846.47
2022-08-23T02:26:38.987Z,97839.38
2022-08-23T02:29:07.715Z,97833.91
2022-08-23T02:31:36.154Z,97843.16
2022-08-23T02:34:06.072Z,97848.84
2022-08-23T02:36:34.943Z,97857.25
2022-08-23T02:39:03.155Z,97863.25
2022-08-23T02:41:31.774Z,97863.25
2022-08-23T02:44:01.635Z,97861.50
2022-08-23T02:46:29.827Z,97856.06
2022-08-23T02:48:58.069Z,97854.50
2022-08-23T02:51:26.830Z,97860.25
2022-08-23T02:53:54.910Z,97854.59
2022-08-23T02:56:23.281Z,97854.66
2022-08-23T02:58:54.196Z,97866.72
2022-08-23T03:01:28.668Z,97868.47
2022-08-23T03:03:58.600Z,97864.38
2022-08-23T03:06:27.053Z,97857.03
2022-08-23T03:08:55.651Z,97855.56
2022-08-23T03:11:25.124Z,97855.44
2022-08-23T03:13:54.832Z,97847.63
2022-08-23T03:16:24.735Z,97851.22
2022-08-23T03:18:53.248Z,97859.38
2022-08-23T03:21:22.222Z,97861.81
2022-08-23T03:23:50.651Z,97861.69
2022-08-23T03:26:18.974Z,97857.66
2022-08-23T03:28:47.828Z,97865.41
2022-08-23T03:31:17.128Z,97869.03
2022-08-23T03:33:47.399Z,97862.31
2022-08-23T03:36:16.309Z,97853.09
2022-08-23T03:38:45.404Z,97859.38
2022-08-23T03:41:14.205Z,97869.97
2022-08-23T03:43:42.443Z,97875.41
2022-08-23T03:46:10.587Z,97871.44
2022-08-23T03:48:40.333Z,97871.44
2022-08-23T03:51:09.714Z,97871.66
2022-08-23T03:53:37.844Z,97872.31
2022-08-23T03:56:06.737Z,97875.56
2022-08-23T03:58:35.007Z,97868.25
2022-08-23T04:01:03.243Z,97872.69
2022-08-23T04:03:32.239Z,97871.97
2022-08-23T04:06:00.431Z,97881.16
2022-08-23T04:08:33.368Z,97882.19
2022-08-23T04:11:02.377Z,97886.47
2022-08-23T04:13:30.681Z,97886.41
2022-08-23T04:15:59.469Z,97887.31
2022-08-23T04:18:30.094Z,97895.63
2022-08-23T04:20:59.972Z,97893.34
2022-08-23T04:23:29.719Z,97894.63
2022-08-23T04:25:58.044Z,97902.44
2022-08-23T04:28:27.070Z,97902.81
2022-08-23T04:30:55.378Z,97905.28
2022-08-23T04:33:24.104Z,97904.84
2022-08-23T04:35:52.571Z,97906.84
2022-08-23T04:38:25.085Z,97909.25
2022-08-23T04:41:12.725Z,97901.41
2022-08-23T04:43:41.497Z,97904.09
2022-08-23T04:46:10.409Z,97902.50
2022-08-23T04:48:39.283Z,97911.84
2022-08-23T04:51:07.892Z,97908.63
2022-08-23T04:53:36.186Z,97915.38
2022-08-23T04:56:07.109Z,97912.72
2022-08-23T04:58:36.715Z,97913.50
2022-08-23T05:01:08.033Z,97909.50
2022-08-23T05:03:36.709Z,97912.72
2022-08-23T05:06:05.314Z,97915.91
2022-08-23T05:08:33.606Z,97917.47
2022-08-23T05:11:02.902Z,97922.34
2022-08-23T05:13:34.769Z,97919.19
2022-08-23T05:16:03.850Z,97919.13
2022-08-23T05:18:32.149Z,97929.19
2022-08-23T05:21:00.436Z,97925.97
2022-08-23T05:23:32.348Z,97929.16
2022-08-23T05:26:02.006Z,97928.38
2022-08-23T05:28:34.622Z,97932.81
2022-08-23T05:31:06.100Z,97942.44
2022-08-23T05:33:40.699Z,97943.22
2022-08-23T05:36:10.646Z,97939.63
2022-08-23T05:38:39.648Z,97942.44
2022-08-23T05:41:08.740Z,97943.25
2022-08-23T05:43:38.559Z,97937.63
2022-08-23T05:46:12.649Z,97944.03
2022-08-23T05:48:43.523Z,97947.63
2022-08-23T05:51:13.760Z,97945.19
2022-08-23T05:53:43.053Z,97952.06
2022-08-23T05:56:13.059Z,97954.81
2022-08-23T05:58:43.601Z,97957.97
2022-08-23T06:01:12.386Z,97952.16
2022-08-23T06:03:41.675Z,97958.16
2022-08-23T06:06:10.576Z,97952.44
2022-08-23T06:08:40.241Z,97956.31
2022-08-23T06:11:11.075Z,97958.25
2022-08-23T06:13:43.935Z,97957.69
2022-08-23T06:16:13.258Z,97961.47
2022-08-23T06:18:44.521Z,97966.34
2022-08-23T06:21:14.947Z,97968.50
2022-08-23T06:23:44.263Z,97968.28
2022-08-23T06:26:14.067Z,97974.72
2022-08-23T06:28:50.833Z,97970.31
2022-08-23T06:31:42.060Z,97966.91
2022-08-23T06:34:12.730Z,97961.22
2022-08-23T06:36:42.043Z,97976.69
2022-08-23T06:39:12.239Z,97964.13
2022-08-23T06:41:40.369Z,97975.63
2022-08-23T06:44:10.544Z,97973.91
2022-08-23T06:46:39.287Z,97965.91
2022-08-23T06:49:08.099Z,97972.19
2022-08-23T06:51:38.472Z,97973.06
2022-08-23T06:54:10.014Z,97975.69
2022-08-23T06:56:42.241Z,97982.03
2022-08-23T06:59:12.252Z,97984.44
2022-08-23T07:01:46.065Z,97985.28
2022-08-23T07:04:21.417Z,97983.63
2022-08-23T07:06:49.623Z,97987.63
2022-08-23T07:09:18.773Z,97984.44
2022-08-23T07:11:47.012Z,97987.41
2022-08-23T07:14:19.073Z,97974.47
2022-08-23T07:16:50.326Z,97989.72
2022-08-23T07:19:19.459Z,97989.59
2022-08-23T07:21:48.836Z,97980.56
2022-08-23T07:24:17.949Z,97985.25
2022-08-23T07:26:48.854Z,97998.09
2022-08-23T07:29:18.581Z,97993.84
2022-08-23T07:31:49.626Z,97996.59
2022-08-23T07:34:18.802Z,97998.88
2022-08-23T07:36:48.311Z,98000.50
2022-08-23T07:39:17.582Z,97996.66
2022-08-23T07:41:46.949Z,98005.66
2022-08-23T07:44:19.124Z,98008.81
2022-08-23T07:46:51.421Z,98002.53
2022-08-23T07:49:20.039Z,98000.53
2022-08-23T07:51:50.528Z,97998.03
2022-08-23T07:54:20.317Z,97997.66
2022-08-23T07:56:48.741Z,98001.31
2022-08-23T07:59:16.871Z,98010.56
2022-08-23T08:01:46.552Z,98008.97
2022-08-23T08:04:15.060Z,98014.25
2022-08-23T08:06:46.408Z,98009.00
2022-08-23T08:09:15.585Z,98017.84
2022-08-23T08:11:47.641Z,98018.59
2022-08-23T08:14:17.267Z,98017.88
2022-08-23T08:16:49.864Z,98019.81
2022-08-23T08:19:19.921Z,98021.06
2022-08-23T08:21:48.670Z,98017.81
2022-08-23T08:24:17.896Z,98020.94
2022-08-23T08:26:46.926Z,98030.09
2022-08-23T08:29:15.545Z,98031.38
2022-08-23T08:31:50.306Z,98035.97
2022-08-23T08:34:21.023Z,98040.84
2022-08-23T08:36:52.023Z,98049.78
2022-08-23T08:39:23.731Z,98053.59
2022-08-23T08:42:08.866Z,98055.03
2022-08-23T08:44:40.552Z,98052.69
2022-08-23T08:47:15.754Z,98055.59
2022-08-23T08:49:52.521Z,98058.78
2022-08-23T08:52:24.981Z,98054.13
2022-08-23T08:54:58.881Z,98048.03
2022-08-23T08:57:27.835Z,98053.69
2022-08-23T09:00:00.763Z,98056.47
2022-08-23T09:02:34.848Z,98061.44
2022-08-23T09:05:05.904Z,98064.91
2022-08-23T09:07:43.300Z,98066.09
2022-08-23T09:10:26.342Z,98071.31
2022-08-23T09:13:03.760Z,98065.31
2022-08-23T09:15:42.890Z,98059.44
2022-08-23T09:18:15.941Z,98079.19
2022-08-23T09:20:45.917Z,98079.78
2022-08-23T09:23:18.295Z,98083.34
2022-08-23T09:25:53.326Z,98083.66
2022-08-23T09:28:21.905Z,98088.53
2022-08-23T09:30:53.596Z,98089.25
2022-08-23T09:33:26.272Z,98093.13
2022-08-23T09:36:15.320Z,98085.94
2022-08-23T09:38:53.209Z,98090.31
2022-08-23T09:41:27.959Z,98089.09
2022-08-23T09:43:59.089Z,98092.94
2022-08-23T09:46:30.541Z,98090.34
2022-08-23T09:49:01.628Z,98082.25
2022-08-23T09:51:34.993Z,98089.00
2022-08-23T09:54:07.870Z,98086.28
2022-08-23T09:56:39.727Z,98083.97
2022-08-23T09:59:26.865Z,98091.13
2022-08-23T10:01:57.854Z,98089.22
2022-08-23T10:04:41.378Z,98095.41
2022-08-23T10:07:28.205Z,98090.34
2022-08-23T10:09:56.780Z,98097.94
2022-08-23T10:12:25.298Z,98092.94
2022-08-23T10:14:53.839Z,98092.56
2022-08-23T10:17:28.976Z,98099.81
2022-08-23T10:20:06.170Z,98102.34
2022-08-23T10:22:42.025Z,98104.38
2022-08-23T10:25:14.154Z,98101.31
2022-08-23T10:28:06.140Z,98107.16
2022-08-23T10:30:50.029Z,98102.69
2022-08-23T10:33:22.074Z,98103.75
2022-08-23T10:36:01.071Z,98100.78
2022-08-23T10:38:36.718Z,98117.28
2022-08-23T10:41:19.036Z,98110.63
2022-08-23T10:43:53.844Z,98112.81
2022-08-23T10:46:23.877Z,98111.59
2022-08-23T10:48:54.076Z,98103.38
2022-08-23T10:51:31.684Z,98109.81
2022-08-23T10:54:04.140Z,98104.50
2022-08-23T10:56:32.560Z,98118.09
2022-08-23T10:59:03.923Z,98111.16
2022-08-23T11:01:33.066Z,98113.13
2022-08-23T11:04:03.935Z,98121.66
2022-08-23T11:06:47.822Z,98111.13
2022-08-23T11:09:50.305Z,98117.31
2022-08-23T11:12:24.682Z,98108.63
2022-08-23T11:15:11.466Z,98108.56
2022-08-23T11:17:45.298Z,98114.69
2022-08-23T11:20:15.136Z,98113.50
2022-08-23T11:23:13.649Z,98116.66
2022-08-23T11:25:43.808Z,98118.69
2022-08-23T11:28:37.810Z,98122.66
2022-08-23T11:31:21.836Z,98123.25
2022-08-23T11:33:53.204Z,98122.81
2022-08-23T11:36:24.031Z,98121.47
2022-08-23T11:39:06.552Z,98121.41
2022-08-23T11:41:38.088Z,98120.91
2022-08-23T11:44:24.827Z,98127.97
2022-08-23T11:47:04.533Z,98120.03
2022-08-23T11:50:08.795Z,98112.75
2022-08-23T11:52:54.310Z,98113.38
2022-08-23T11:55:30.735Z,98119.88
2022-08-23T11:58:14.014Z,98123.28
2022-08-23T12:00:55.598Z,98120.16
2022-08-23T12:03:27.107Z,98112.75
2022-08-23T12:06:16.019Z,98114.63
2022-08-23T12:08:52.547Z,98112.63
2022-08-23T12:11:24.057Z,98123.75
2022-08-23T12:14:01.531Z,98122.31
2022-08-23T12:16:49.525Z,98123.81
2022-08-23T12:19:26.205Z,98130.22
2022-08-23T12:21:56.064Z,98135.00
2022-08-23T12:24:27.507Z,98127.84
2022-08-23T12:27:02.261Z,98134.56
2022-08-23T12:29:41.662Z,98135.69
2022-08-23T12:32:15.160Z,98138.31
2022-08-23T12:34:53.738Z,98130.75
2022-08-23T12:37:32.642Z,98129.16
2022-08-23T12:40:03.369Z,98132.47
2022-08-23T12:42:35.505Z,98137.31
2022-08-23T12:45:08.213Z,98137.84
2022-08-23T12:47:40.913Z,98126.41
2022-08-23T12:50:21.086Z,98125.75
2022-08-23T12:52:59.583Z,98126.63
2022-08-23T12:55:32.863Z,98126.78
2022-08-23T12:58:02.755Z,98121.88
2022-08-23T13:00:34.181Z,98125.63
2022-08-23T13:03:05.145Z,98119.50
2022-08-23T13:05:39.197Z,98121.72
2022-08-23T13:08:09.727Z,98124.59
2022-08-23T13:10:41.639Z,98120.06
2022-08-23T13:13:13.964Z,98120.63
2022-08-23T13:15:46.875Z,98125.50
2022-08-23T13:18:29.384Z,98125.16
2022-08-23T13:21:20.496Z,98127.31
2022-08-23T13:23:48.559Z,98116.34
2022-08-23T13:26:28.678Z,98126.72
2022-08-23T13:29:11.533Z,98124.47
2022-08-23T13:31:53.353Z,98115.22
2022-08-23T13:34:39.653Z,98114.78
2022-08-23T13:37:21.677Z,98124.13
2022-08-23T13:39:54.414Z,98114.06
2022-08-23T13:42:31.940Z,98123.31
2022-08-23T13:45:08.329Z,98120.56
2022-08-23T13:47:37.745Z,98125.97
2022-08-23T13:50:11.539Z,98119.13
2022-08-23T13:53:03.192Z,98117.56
2022-08-23T13:55:29.425Z,98122.94
2022-08-23T13:57:59.208Z,98112.06
2022-08-23T14:00:28.771Z,98117.81
2022-08-23T14:02:56.975Z,98116.13
2022-08-23T14:05:25.440Z,98113.31
2022-08-23T14:07:53.845Z,98108.53
2022-08-23T14:10:23.312Z,98106.31
2022-08-23T14:12:54.115Z,98110.06
2022-08-23T14:15:54.646Z,98102.41
2022-08-23T14:18:12.865Z,98106.31
2022-08-23T14:20:46.249Z,98109.47
2022-08-23T14:23:14.998Z,98098.59
2022-08-23T14:25:43.569Z,98107.72
2022-08-23T14:28:11.685Z,98098.53
2022-08-23T14:30:40.330Z,98090.50
2022-08-23T14:33:08.738Z,98094.97
2022-08-23T14:35:38.434Z,98104.88
2022-08-23T14:38:07.946Z,98101.41
2022-08-23T14:40:36.690Z,98095.19
2022-08-23T14:43:06.018Z,98097.50
2022-08-23T14:45:34.517Z,98096.13
2022-08-23T14:48:04.022Z,98095.88
2022-08-23T14:50:32.401Z,98101.00
2022-08-23T14:53:04.931Z,98095.59
2022-08-23T14:55:33.294Z,98097.00
2022-08-23T14:58:01.776Z,98098.72
2022-08-23T15:00:31.261Z,98096.19
2022-08-23T15:02:59.763Z,98097.06
2022-08-23T15:05:28.088Z,98098.63
2022-08-23T15:07:56.255Z,98094.22
2022-08-23T15:13:22.123Z,98106.41
2022-08-23T15:15:55.519Z,98107.13
2022-08-23T15:18:24.250Z,98111.06
2022-08-23T15:20:52.666Z,98121.97
2022-08-23T15:23:21.133Z,98132.41
2022-08-23T15:25:51.472Z,98143.25
2022-08-23T15:28:22.473Z,98140.84
2022-08-23T15:30:51.677Z,98146.50
2022-08-23T15:33:24.683Z,98142.50
2022-08-23T15:35:55.995Z,98144.53
2022-08-23T15:38:25.878Z,98154.63
2022-08-23T15:40:55.898Z,98145.06
2022-08-23T15:43:25.875Z,98146.78
2022-08-23T15:46:07.283Z,98146.38
2022-08-23T15:48:38.022Z,98152.88
2022-08-23T15:51:07.028Z,98155.16
2022-08-23T15:53:35.400Z,98153.53
2022-08-23T15:56:08.672Z,98162.66
2022-08-23T15:58:38.497Z,98162.25
2022-08-23T16:01:08.093Z,98157.19
2022-08-23T16:03:36.995Z,98159.00
2022-08-23T16:06:05.630Z,98154.19
2022-08-23T16:08:38.439Z,98152.44
2022-08-23T16:11:12.376Z,98151.44
2022-08-23T16:13:42.748Z,98151.25
2022-08-23T16:16:17.855Z,98154.13
2022-08-23T16:18:46.442Z,98158.06
2022-08-23T16:21:15.600Z,98161.59
2022-08-23T16:23:44.562Z,98169.06
2022-08-23T16:26:16.666Z,98167.13
2022-08-23T16:28:51.622Z,98169.06
2022-08-23T16:31:20.401Z,98167.03
2022-08-23T16:33:48.919Z,98164.81
2022-08-23T16:36:19.519Z,98171.19
2022-08-23T16:38:49.508Z,98176.31
2022-08-23T16:41:19.241Z,98180.34
2022-08-23T16:43:47.374Z,98190.94
2022-08-23T16:46:17.010Z,98195.00
2022-08-23T16:48:45.924Z,98194.88
2022-08-23T16:51:14.442Z,98198.44
2022-08-23T16:53:43.486Z,98191.09
2022-08-23T16:56:15.281Z,98184.81
2022-08-23T16:58:45.766Z,98190.78
2022-08-23T17:01:14.926Z,98197.38
2022-08-23T17:03:44.105Z,98195.56
2022-08-23T17:06:13.096Z,98189.53
2022-08-23T17:08:41.353Z,98193.03
2022-08-23T17:11:12.243Z,98204.31
2022-08-23T17:13:42.544Z,98197.81
2022-08-23T17:16:12.956Z,98202.88
2022-08-23T17:18:41.606Z,98196.06
2022-08-23T17:21:10.242Z,98195.31
2022-08-23T17:23:40.611Z,98211.88
2022-08-23T17:26:09.593Z,98220.22
2022-08-23T17:28:38.008Z,98226.75
2022-08-23T17:31:06.715Z,98227.13
2022-08-23T17:33:36.737Z,98227.31
2022-08-23T17:36:07.151Z,98231.78
2022-08-23T17:38:36.469Z,98229.66
2022-08-23T17:41:04.650Z,98245.44
2022-08-23T17:43:33.013Z,98244.72
2022-08-23T17:46:01.714Z,98243.56
2022-08-23T17:48:30.106Z,98250.53
2022-08-23T17:51:00.099Z,98246.84
2022-08-23T17:53:28.888Z,98248.22
2022-08-23T17:55:57.479Z,98257.56
2022-08-23T17:58:26.055Z,98264.38
2022-08-23T18:00:56.094Z,98267.63
2022-08-23T18:03:24.592Z,98272.44
2022-08-23T18:05:53.263Z,98270.06
2022-08-23T18:08:23.274Z,98278.88
2022-08-23T18:10:51.849Z,98277.75
2022-08-23T18:13:20.786Z,98278.53
2022-08-23T18:15:49.186Z,98279.75
2022-08-23T18:18:17.726Z,98287.78
2022-08-23T18:20:45.938Z,98280.97
2022-08-23T18:23:15.716Z,98273.72
2022-08-23T18:25:45.940Z,98283.75
2022-08-23T18:28:14.326Z,98292.22
2022-08-23T18:30:48.291Z,98294.22
2022-08-23T18:33:17.790Z,98294.22
2022-08-23T18:35:47.730Z,98293.41
2022-08-23T18:38:16.394Z,98294.63
2022-08-23T18:40:47.982Z,98302.28
2022-08-23T18:43:19.391Z,98297.44
2022-08-23T18:45:49.410Z,98293.81
2022-08-23T18:48:18.220Z,98293.84
2022-08-23T18:50:46.569Z,98299.78
2022-08-23T18:53:14.818Z,98308.22
2022-08-23T18:55:43.470Z,98309.44
2022-08-23T18:58:13.606Z,98309.09
2022-08-23T19:00:45.072Z,98304.59
2022-08-23T19:03:16.632Z,98316.25
2022-08-23T19:05:44.779Z,98313.44
2022-08-23T19:08:14.047Z,98323.09
2022-08-23T19:10:43.151Z,98329.13
2022-08-23T19:13:13.331Z,98329.19
2022-08-23T19:15:42.151Z,98330.25
2022-08-23T19:18:11.211Z,98329.03
2022-08-23T19:20:39.837Z,98330.66
2022-08-23T19:23:08.493Z,98323.44
2022-08-23T19:25:38.679Z,98325.41
2022-08-23T19:28:07.159Z,98335.78
2022-08-23T19:30:37.051Z,98325.84
2022-08-23T19:33:08.709Z,98335.31
2022-08-23T19:35:37.321Z,98350.16
2022-08-23T19:38:05.695Z,98350.94
2022-08-23T19:40:34.377Z,98343.38
2022-08-23T19:43:02.971Z,98355.78
2022-08-23T19:45:32.404Z,98354.16
2022-08-23T19:48:02.932Z,98364.75
2022-08-23T19:50:31.381Z,98361.34
2022-08-23T19:53:00.133Z,98366.59
2022-08-23T19:55:29.330Z,98374.94
2022-08-23T19:57:58.115Z,98388.63
2022-08-23T20:00:27.653Z,98388.25
2022-08-23T20:02:55.734Z,98390.47
2022-08-23T20:05:25.619Z,98392.31
2022-08-23T20:07:53.831Z,98400.06
2022-08-23T20:10:22.412Z,98392.88
2022-08-23T20:12:50.874Z,98395.25
2022-08-23T20:15:19.130Z,98395.00
2022-08-23T20:17:47.302Z,98397.81
2022-08-23T20:20:15.693Z,98399.09
2022-08-23T20:23:03.034Z,98404.13
2022-08-23T20:25:31.629Z,98399.06
2022-08-23T20:27:59.882Z,98406.22
2022-08-23T20:30:28.198Z,98400.69
2022-08-23T20:32:56.639Z,98401.47
2022-08-23T20:35:25.032Z,98401.53
2022-08-23T20:37:54.664Z,98405.31
2022-08-23T20:40:26.115Z,98407.06
2022-08-23T20:42:54.299Z,98400.22
2022-08-23T20:45:22.416Z,98402.22
2022-08-23T20:47:50.923Z,98408.69
2022-08-23T20:50:19.013Z,98401.03
2022-08-23T20:52:47.098Z,98392.56
2022-08-23T20:55:16.993Z,98391.53
2022-08-23T20:57:45.161Z,98394.97
2022-08-23T21:00:14.366Z,98390.28
2022-08-23T21:02:42.812Z,98390.25
2022-08-23T21:05:11.111Z,98392.28
2022-08-23T21:07:40.235Z,98392.69
2022-08-23T21:10:10.639Z,98390.31
2022-08-23T21:12:40.308Z,98392.06
2022-08-23T21:15:11.089Z,98396.41
2022-08-23T21:17:39.662Z,98386.25
2022-08-23T21:20:08.880Z,98385.53
2022-08-23T21:22:37.227Z,98390.69
2022-08-23T21:25:06.360Z,98389.91
2022-08-23T21:27:35.143Z,98386.66
2022-08-23T21:30:06.130Z,98391.25
2022-08-23T21:32:34.383Z,98384.97
2022-08-23T21:35:03.307Z,98383.06
2022-08-23T21:37:31.419Z,98384.63
2022-08-23T21:39:59.836Z,98378.13
2022-08-23T21:42:28.217Z,98366.97
2022-08-23T21:44:56.858Z,98361.75
2022-08-23T21:47:26.704Z,98363.56
2022-08-23T21:49:54.841Z,98373.34
2022-08-23T21:52:23.011Z,98362.16
2022-08-23T21:54:51.627Z,98367.78
2022-08-23T21:57:19.845Z,98372.41
2022-08-23T21:59:51.729Z,98374.09
2022-08-23T22:02:20.640Z,98375.59
2022-08-23T22:04:50.449Z,98376.59
2022-08-23T22:07:18.758Z,98369.91
2022-08-23T22:09:47.304Z,98359.94
2022-08-23T22:12:15.816Z,98362.69
2022-08-23T22:14:47.348Z,98369.16
2022-08-23T22:17:17.959Z,98369.88
2022-08-23T22:19:46.220Z,98361.94
2022-08-23T22:22:15.792Z,98369.00
2022-08-23T22:24:44.302Z,98365.97
2022-08-23T22:27:13.468Z,98363.16
2022-08-23T22:29:41.771Z,98361.97
2022-08-23T22:32:13.664Z,98365.47
2022-08-23T22:34:41.905Z,98361.09
2022-08-23T22:37:09.974Z,98361.97
2022-08-23T22:39:39.735Z,98357.38
2022-08-23T22:42:09.887Z,98366.34
2022-08-23T22:44:38.325Z,98373.13
2022-08-23T22:47:07.068Z,98373.22
2022-08-23T22:49:35.162Z,98368.66
2022-08-23T22:52:03.228Z,98362.66
2022-08-23T22:54:31.576Z,98353.06
2022-08-23T22:57:00.975Z,98360.50
2022-08-23T22:59:32.134Z,98363.88
2022-08-23T23:02:02.563Z,98353.94
2022-08-23T23:04:32.676Z,98360.84
2022-08-23T23:07:00.976Z,98361.09
2022-08-23T23:09:29.498Z,98359.88
2022-08-23T23:11:57.574Z,98361.88
2022-08-23T23:14:26.976Z,98362.97
2022-08-23T23:16:55.483Z,98360.25
2022-08-23T23:19:41.087Z,98355.13
2022-08-23T23:22:11.106Z,98354.28
2022-08-23T23:24:40.568Z,98353.19
2022-08-23T23:27:09.256Z,98344.53
2022-08-23T23:29:38.905Z,98347.38
2022-08-23T23:32:07.500Z,98347.94
2022-08-23T23:34:38.058Z,98346.25
2022-08-23T23:37:06.460Z,98334.53
2022-08-23T23:39:34.727Z,98337.22
2022-08-23T23:42:02.878Z,98337.22
2022-08-23T23:44:32.032Z,98340.09
2022-08-23T23:47:02.425Z,98340.91
2022-08-23T23:49:32.345Z,98341.06
2022-08-23T23:52:03.630Z,98331.72
2022-08-23T23:54:32.521Z,98340.75
2022-08-23T23:57:00.647Z,98348.38
2022-08-23T23:59:29.188Z,98358.84
